createdAt,value
2019-03-09T00:00:44.302Z,83.37
2019-03-09T00:03:12.931Z,83.71
2019-03-09T00:05:41.458Z,82.17
2019-03-09T00:08:14.860Z,82.93
2019-03-09T00:10:43.389Z,82.70
2019-03-09T00:13:12.135Z,83.22
2019-03-09T00:15:40.740Z,83.07
2019-03-09T00:18:09.142Z,82.95
2019-03-09T00:20:37.577Z,82.25
2019-03-09T00:23:20.026Z,83.02
2019-03-09T00:26:06.231Z,83.29
2019-03-09T00:28:36.445Z,83.45
2019-03-09T00:31:06.595Z,83.51
2019-03-09T00:33:35.174Z,83.71
2019-03-09T00:36:03.732Z,83.57
2019-03-09T00:38:32.313Z,84.48
2019-03-09T00:41:00.739Z,84.06
2019-03-09T00:43:29.246Z,84.63
2019-03-09T00:45:57.933Z,84.65
2019-03-09T00:48:26.516Z,85.14
2019-03-09T00:50:55.181Z,85.09
2019-03-09T00:53:24.075Z,85.53
2019-03-09T00:55:52.474Z,85.91
2019-03-09T00:58:20.962Z,86.04
2019-03-09T01:00:49.407Z,85.37
2019-03-09T01:03:17.841Z,85.44
2019-03-09T01:05:46.227Z,86.06
2019-03-09T01:08:14.650Z,85.12
2019-03-09T01:10:43.055Z,85.62
2019-03-09T01:13:11.567Z,85.27
2019-03-09T01:15:40.563Z,85.20
2019-03-09T01:18:09.039Z,85.16
2019-03-09T01:20:37.513Z,85.71
2019-03-09T01:23:05.917Z,85.80
2019-03-09T01:25:34.337Z,86.10
2019-03-09T01:28:02.815Z,85.98
2019-03-09T01:30:31.231Z,85.14
2019-03-09T01:32:59.646Z,85.49
2019-03-09T01:35:28.197Z,85.55
2019-03-09T01:37:56.687Z,85.65
2019-03-09T01:40:25.109Z,85.80
2019-03-09T01:42:53.508Z,85.59
2019-03-09T01:45:22.217Z,85.65
2019-03-09T01:47:50.642Z,85.69
2019-03-09T01:50:19.046Z,85.88
2019-03-09T01:52:47.480Z,85.79
2019-03-09T01:55:15.890Z,86.01
2019-03-09T01:57:44.295Z,86.29
2019-03-09T02:00:18.702Z,86.55
2019-03-09T02:02:47.245Z,86.19
2019-03-09T02:05:18.988Z,85.76
2019-03-09T02:07:47.437Z,86.80
2019-03-09T02:10:17.360Z,86.40
2019-03-09T02:12:45.778Z,86.98
2019-03-09T02:15:15.750Z,86.53
2019-03-09T02:17:44.861Z,86.13
2019-03-09T02:20:17.361Z,86.31
2019-03-09T02:22:45.754Z,85.76
2019-03-09T02:25:15.461Z,86.28
2019-03-09T02:27:43.890Z,86.35
2019-03-09T02:30:19.646Z,85.75
2019-03-09T02:32:48.076Z,85.62
2019-03-09T02:35:18.117Z,85.73
2019-03-09T02:37:46.553Z,85.95
2019-03-09T02:40:19.358Z,85.87
2019-03-09T02:42:47.810Z,85.80
2019-03-09T02:45:18.954Z,86.48
2019-03-09T02:47:47.324Z,87.16
2019-03-09T02:50:16.999Z,86.84
2019-03-09T02:52:45.529Z,87.52
2019-03-09T02:55:14.518Z,87.93
2019-03-09T02:57:43.097Z,87.49
2019-03-09T03:00:17.602Z,87.07
2019-03-09T03:02:47.681Z,88.06
2019-03-09T03:05:16.323Z,88.48
2019-03-09T03:07:44.903Z,88.37
2019-03-09T03:10:13.441Z,88.07
2019-03-09T03:12:41.845Z,89.53
2019-03-09T03:15:12.785Z,87.79
2019-03-09T03:17:41.253Z,89.00
2019-03-09T03:20:10.059Z,89.15
2019-03-09T03:22:38.477Z,88.49
2019-03-09T03:25:07.843Z,88.52
2019-03-09T03:27:36.229Z,88.79
2019-03-09T03:30:07.010Z,88.04
2019-03-09T03:32:36.277Z,88.27
2019-03-09T03:35:06.847Z,87.55
2019-03-09T03:37:35.276Z,89.45
2019-03-09T03:40:05.228Z,89.46
2019-03-09T03:42:33.637Z,90.88
2019-03-09T03:45:02.046Z,92.00
2019-03-09T03:47:30.465Z,92.11
2019-03-09T03:49:58.902Z,91.23
2019-03-09T03:52:27.323Z,90.93
2019-03-09T03:54:55.728Z,91.30
2019-03-09T03:57:24.156Z,93.35
2019-03-09T03:59:52.553Z,93.86
2019-03-09T04:02:21.129Z,94.06
2019-03-09T04:04:49.626Z,95.70
2019-03-09T04:07:18.014Z,95.27
2019-03-09T04:09:46.531Z,95.29
2019-03-09T04:12:15.298Z,94.98
2019-03-09T04:14:43.841Z,95.13
2019-03-09T04:17:12.302Z,94.32
2019-03-09T04:19:40.688Z,94.01
2019-03-09T04:22:09.098Z,95.14
2019-03-09T04:24:40.299Z,95.35
2019-03-09T04:27:08.675Z,95.62
2019-03-09T04:29:37.096Z,96.47
2019-03-09T04:32:05.525Z,97.19
2019-03-09T04:34:34.019Z,97.19
2019-03-09T04:37:02.449Z,97.65
2019-03-09T04:39:30.908Z,99.11
2019-03-09T04:41:59.387Z,100.00
2019-03-09T04:44:27.795Z,100.00
2019-03-09T04:46:56.207Z,100.00
2019-03-09T04:49:24.664Z,100.00
2019-03-09T04:51:53.057Z,100.00
2019-03-09T04:54:21.463Z,100.00
2019-03-09T04:56:49.916Z,100.00
2019-03-09T04:59:18.328Z,100.00
2019-03-09T05:01:46.758Z,100.00
2019-03-09T05:04:27.231Z,100.00
2019-03-09T05:06:55.654Z,100.00
2019-03-09T05:10:00.292Z,100.00
2019-03-09T05:12:28.658Z,100.00
2019-03-09T05:14:57.069Z,100.00
2019-03-09T05:17:25.493Z,100.00
2019-03-09T05:19:53.906Z,100.00
2019-03-09T05:22:22.320Z,100.00
2019-03-09T05:24:50.738Z,100.00
2019-03-09T05:27:19.192Z,100.00
2019-03-09T05:29:47.613Z,100.00
2019-03-09T05:32:16.021Z,100.00
2019-03-09T05:34:44.447Z,100.00
2019-03-09T05:37:12.874Z,100.00
2019-03-09T05:39:41.290Z,100.00
2019-03-09T05:42:09.732Z,100.00
2019-03-09T05:44:38.150Z,100.00
2019-03-09T05:47:06.582Z,100.00
2019-03-09T05:49:34.993Z,100.00
2019-03-09T05:52:24.536Z,100.00
2019-03-09T05:54:52.947Z,100.00
2019-03-09T05:57:21.368Z,100.00
2019-03-09T05:59:49.857Z,100.00
2019-03-09T06:02:18.365Z,100.00
2019-03-09T06:04:46.782Z,100.00
2019-03-09T06:07:15.228Z,100.00
2019-03-09T06:09:43.642Z,100.00
2019-03-09T06:12:12.042Z,100.00
2019-03-09T06:14:40.470Z,100.00
2019-03-09T06:17:08.886Z,100.00
2019-03-09T06:19:37.729Z,100.00
2019-03-09T06:22:06.256Z,100.00
2019-03-09T06:24:34.703Z,100.00
2019-03-09T06:27:03.161Z,100.00
2019-03-09T06:29:31.559Z,100.00
2019-03-09T06:32:31.850Z,100.00
2019-03-09T06:35:00.423Z,100.00
2019-03-09T06:37:29.519Z,100.00
2019-03-09T06:39:58.110Z,100.00
2019-03-09T06:42:35.845Z,100.00
2019-03-09T06:45:06.321Z,100.00
2019-03-09T06:47:34.722Z,100.00
2019-03-09T06:50:03.348Z,100.00
2019-03-09T06:52:31.786Z,100.00
2019-03-09T06:55:00.313Z,100.00
2019-03-09T06:57:28.713Z,100.00
2019-03-09T06:59:57.136Z,100.00
2019-03-09T07:02:25.587Z,100.00
2019-03-09T07:04:54.023Z,100.00
2019-03-09T07:07:22.441Z,100.00
2019-03-09T07:09:50.870Z,100.00
2019-03-09T07:12:19.370Z,100.00
2019-03-09T07:14:59.971Z,100.00
2019-03-09T07:17:28.474Z,100.00
2019-03-09T07:19:57.391Z,100.00
2019-03-09T07:22:26.258Z,100.00
2019-03-09T07:24:55.170Z,100.00
2019-03-09T07:27:23.782Z,100.00
2019-03-09T07:29:53.612Z,100.00
2019-03-09T07:32:22.255Z,100.00
2019-03-09T07:34:50.904Z,100.00
2019-03-09T07:37:19.595Z,100.00
2019-03-09T07:39:48.191Z,98.54
2019-03-09T07:42:16.686Z,97.50
2019-03-09T07:44:45.402Z,94.91
2019-03-09T07:47:15.305Z,93.81
2019-03-09T07:49:43.904Z,92.96
2019-03-09T07:52:30.666Z,93.36
2019-03-09T07:54:59.154Z,92.69
2019-03-09T07:57:27.562Z,92.89
2019-03-09T07:59:56.077Z,92.77
2019-03-09T08:02:24.497Z,91.57
2019-03-09T08:04:52.939Z,91.88
2019-03-09T08:07:21.422Z,91.36
2019-03-09T08:09:49.856Z,90.67
2019-03-09T08:12:18.424Z,90.61
2019-03-09T08:14:46.936Z,89.18
2019-03-09T08:17:15.608Z,87.74
2019-03-09T08:19:44.093Z,84.99
2019-03-09T08:22:12.807Z,82.13
2019-03-09T08:24:41.236Z,81.73
2019-03-09T08:27:09.840Z,82.17
2019-03-09T08:29:38.232Z,80.74
2019-03-09T08:32:06.661Z,80.60
2019-03-09T08:34:35.151Z,79.87
2019-03-09T08:37:03.607Z,79.33
2019-03-09T08:39:31.985Z,79.94
2019-03-09T08:42:01.217Z,79.92
2019-03-09T08:44:29.660Z,79.34
2019-03-09T08:46:58.223Z,79.05
2019-03-09T08:49:26.784Z,79.27
2019-03-09T08:51:57.523Z,79.02
2019-03-09T08:54:25.963Z,78.39
2019-03-09T08:56:54.396Z,78.77
2019-03-09T08:59:22.865Z,77.01
2019-03-09T09:01:51.405Z,77.52
2019-03-09T09:04:19.796Z,80.10
2019-03-09T09:06:48.239Z,78.78
2019-03-09T09:09:16.649Z,79.20
2019-03-09T09:11:45.052Z,78.93
2019-03-09T09:14:14.722Z,79.47
2019-03-09T09:16:43.149Z,80.04
2019-03-09T09:19:11.592Z,80.21
2019-03-09T09:21:39.989Z,81.20
2019-03-09T09:24:08.394Z,81.57
2019-03-09T09:26:36.877Z,80.90
2019-03-09T09:29:05.279Z,80.64
2019-03-09T09:31:33.808Z,79.75
2019-03-09T09:34:02.308Z,79.68
2019-03-09T09:36:30.706Z,79.46
2019-03-09T09:38:59.153Z,80.53
2019-03-09T09:41:27.565Z,79.35
2019-03-09T09:43:55.976Z,79.57
2019-03-09T09:46:24.523Z,79.72
2019-03-09T09:48:52.958Z,79.76
2019-03-09T09:51:21.449Z,80.40
2019-03-09T09:53:49.882Z,79.00
2019-03-09T09:56:18.284Z,80.38
2019-03-09T09:58:46.762Z,79.50
2019-03-09T10:01:15.168Z,79.42
2019-03-09T10:03:43.607Z,77.38
2019-03-09T10:06:12.075Z,78.37
2019-03-09T10:08:40.476Z,76.77
2019-03-09T10:11:08.894Z,75.71
2019-03-09T10:13:37.339Z,76.25
2019-03-09T10:16:05.850Z,76.42
2019-03-09T10:18:34.248Z,76.81
2019-03-09T10:21:02.666Z,76.40
2019-03-09T10:23:31.079Z,76.37
2019-03-09T10:25:59.529Z,74.88
2019-03-09T10:28:27.947Z,74.86
2019-03-09T10:30:56.396Z,74.00
2019-03-09T10:33:24.833Z,73.28
2019-03-09T10:35:53.243Z,73.52
2019-03-09T10:38:21.762Z,73.89
2019-03-09T10:40:50.177Z,73.92
2019-03-09T10:43:18.601Z,76.65
2019-03-09T10:45:47.060Z,74.78
2019-03-09T10:48:15.472Z,75.95
2019-03-09T10:50:43.927Z,75.62
2019-03-09T10:53:12.392Z,75.32
2019-03-09T10:55:42.555Z,75.33
2019-03-09T10:58:10.943Z,75.97
2019-03-09T11:00:41.950Z,76.37
2019-03-09T11:03:10.416Z,76.92
2019-03-09T11:05:38.950Z,76.71
2019-03-09T11:08:07.479Z,74.79
2019-03-09T11:10:35.949Z,75.94
2019-03-09T11:13:04.452Z,75.81
2019-03-09T11:15:33.072Z,74.62
2019-03-09T11:18:01.509Z,74.42
2019-03-09T11:20:29.926Z,75.53
2019-03-09T11:23:01.288Z,75.16
2019-03-09T11:25:29.719Z,75.14
2019-03-09T11:28:10.028Z,75.49
2019-03-09T11:30:39.407Z,75.84
2019-03-09T11:33:07.826Z,75.62
2019-03-09T11:35:36.281Z,75.28
2019-03-09T11:38:04.720Z,75.15
2019-03-09T11:40:33.152Z,74.81
2019-03-09T11:43:01.572Z,75.92
2019-03-09T11:45:29.989Z,75.01
2019-03-09T11:47:58.405Z,74.03
2019-03-09T11:50:26.853Z,74.71
2019-03-09T11:52:55.303Z,74.47
2019-03-09T11:55:23.711Z,75.24
2019-03-09T11:57:52.233Z,75.02
2019-03-09T12:00:26.648Z,74.49
2019-03-09T12:02:55.238Z,74.98
2019-03-09T12:05:23.669Z,74.12
2019-03-09T12:07:52.082Z,74.20
2019-03-09T12:10:20.713Z,73.04
2019-03-09T12:12:49.205Z,73.59
2019-03-09T12:15:18.671Z,72.48
2019-03-09T12:17:47.117Z,72.57
2019-03-09T12:20:19.006Z,71.52
2019-03-09T12:22:48.057Z,72.32
2019-03-09T12:25:17.730Z,72.62
2019-03-09T12:27:46.273Z,71.99
2019-03-09T12:30:18.927Z,72.31
2019-03-09T12:32:49.188Z,70.66
2019-03-09T12:35:17.714Z,70.83
2019-03-09T12:37:46.251Z,70.04
2019-03-09T12:40:19.554Z,70.18
2019-03-09T12:42:47.925Z,70.45
2019-03-09T12:45:17.516Z,69.92
2019-03-09T12:47:46.163Z,71.16
2019-03-09T12:50:17.639Z,70.05
2019-03-09T12:52:46.080Z,69.99
2019-03-09T12:55:14.861Z,69.70
2019-03-09T12:57:43.660Z,69.14
2019-03-09T13:00:15.208Z,68.50
2019-03-09T13:02:43.667Z,68.19
2019-03-09T13:05:12.136Z,66.91
2019-03-09T13:07:40.614Z,66.48
2019-03-09T13:10:09.828Z,66.77
2019-03-09T13:12:38.371Z,66.04
2019-03-09T13:15:08.843Z,67.12
2019-03-09T13:17:37.336Z,65.24
2019-03-09T13:20:08.476Z,64.91
2019-03-09T13:22:36.932Z,65.30
2019-03-09T13:25:08.287Z,64.06
2019-03-09T13:27:36.722Z,63.70
2019-03-09T13:30:08.451Z,62.51
2019-03-09T13:32:36.875Z,63.34
2019-03-09T13:35:05.535Z,62.78
2019-03-09T13:37:33.991Z,62.62
2019-03-09T13:40:02.459Z,63.82
2019-03-09T13:42:30.883Z,63.02
2019-03-09T13:44:59.585Z,62.19
2019-03-09T13:47:28.057Z,61.38
2019-03-09T13:49:56.607Z,62.20
2019-03-09T13:52:25.044Z,61.25
2019-03-09T13:54:53.510Z,61.63
2019-03-09T13:57:23.447Z,61.73
2019-03-09T13:59:51.892Z,62.16
2019-03-09T14:02:20.874Z,62.64
2019-03-09T14:04:49.286Z,63.13
2019-03-09T14:07:17.820Z,63.78
2019-03-09T14:09:46.413Z,64.85
2019-03-09T14:12:15.001Z,66.05
2019-03-09T14:14:43.426Z,67.43
2019-03-09T14:17:11.909Z,71.60
2019-03-09T14:19:40.456Z,75.77
2019-03-09T14:22:09.391Z,78.98
2019-03-09T14:24:38.709Z,81.02
2019-03-09T14:27:07.214Z,83.60
2019-03-09T14:29:37.730Z,85.95
2019-03-09T14:32:06.247Z,86.23
2019-03-09T14:34:34.690Z,89.01
2019-03-09T14:37:03.683Z,89.26
2019-03-09T14:39:32.168Z,91.55
2019-03-09T14:42:00.720Z,92.67
2019-03-09T14:44:29.213Z,92.50
2019-03-09T14:46:57.653Z,94.06
2019-03-09T14:49:26.130Z,94.24
2019-03-09T14:51:54.774Z,93.25
2019-03-09T14:54:23.832Z,93.03
2019-03-09T14:56:52.252Z,94.78
2019-03-09T14:59:20.812Z,98.03
2019-03-09T15:01:49.333Z,98.99
2019-03-09T15:04:17.758Z,98.63
2019-03-09T15:06:46.329Z,98.22
2019-03-09T15:09:15.688Z,98.90
2019-03-09T15:11:44.091Z,100.00
2019-03-09T15:14:12.526Z,100.00
2019-03-09T15:16:40.953Z,99.15
2019-03-09T15:19:10.649Z,99.73
2019-03-09T15:21:39.063Z,100.00
2019-03-09T15:24:08.252Z,100.00
2019-03-09T15:26:36.751Z,100.00
2019-03-09T15:29:05.152Z,100.00
2019-03-09T15:31:33.585Z,100.00
2019-03-09T15:34:02.032Z,100.00
2019-03-09T15:36:30.438Z,100.00
2019-03-09T15:38:58.877Z,99.09
2019-03-09T15:41:27.283Z,98.25
2019-03-09T15:43:55.730Z,100.00
2019-03-09T15:46:24.299Z,100.00
2019-03-09T15:48:52.796Z,100.00
2019-03-09T15:51:21.239Z,100.00
2019-03-09T15:53:49.682Z,100.00
2019-03-09T15:56:18.079Z,100.00
2019-03-09T15:58:46.540Z,100.00
2019-03-09T16:01:15.071Z,100.00
2019-03-09T16:03:43.541Z,100.00
2019-03-09T16:06:11.959Z,100.00
2019-03-09T16:08:40.471Z,100.00
2019-03-09T16:11:08.911Z,100.00
2019-03-09T16:13:37.691Z,100.00
2019-03-09T16:16:06.811Z,100.00
2019-03-09T16:18:35.437Z,100.00
2019-03-09T16:21:04.034Z,100.00
2019-03-09T16:23:32.742Z,100.00
2019-03-09T16:26:01.436Z,100.00
2019-03-09T16:28:29.927Z,100.00
2019-03-09T16:30:58.600Z,100.00
2019-03-09T16:33:27.354Z,100.00
2019-03-09T16:35:56.093Z,100.00
2019-03-09T16:38:24.771Z,100.00
2019-03-09T16:40:53.219Z,100.00
2019-03-09T16:43:22.340Z,100.00
2019-03-09T16:45:51.021Z,100.00
2019-03-09T16:48:19.618Z,100.00
2019-03-09T16:50:48.398Z,100.00
2019-03-09T16:53:17.611Z,100.00
2019-03-09T16:55:47.902Z,100.00
2019-03-09T16:58:16.637Z,100.00
2019-03-09T17:00:45.264Z,100.00
2019-03-09T17:03:13.936Z,100.00
2019-03-09T17:05:42.422Z,100.00
2019-03-09T17:08:11.117Z,100.00
2019-03-09T17:10:39.623Z,100.00
2019-03-09T17:13:08.054Z,100.00
2019-03-09T17:15:37.105Z,100.00
2019-03-09T17:18:05.790Z,100.00
2019-03-09T17:20:34.242Z,100.00
2019-03-09T17:23:02.785Z,100.00
2019-03-09T17:25:32.150Z,100.00
2019-03-09T17:28:00.611Z,100.00
2019-03-09T17:30:29.083Z,100.00
2019-03-09T17:32:57.587Z,100.00
2019-03-09T17:35:27.642Z,100.00
2019-03-09T17:37:56.080Z,100.00
2019-03-09T17:40:24.677Z,100.00
2019-03-09T17:42:53.106Z,100.00
2019-03-09T17:45:24.565Z,100.00
2019-03-09T17:47:53.169Z,100.00
2019-03-09T17:50:21.669Z,100.00
2019-03-09T17:52:50.097Z,100.00
2019-03-09T17:55:18.534Z,100.00
2019-03-09T17:57:46.997Z,100.00
2019-03-09T18:00:21.337Z,100.00
2019-03-09T18:02:49.762Z,99.68
2019-03-09T18:05:20.070Z,97.88
2019-03-09T18:07:48.715Z,98.82
2019-03-09T18:10:41.539Z,97.92
2019-03-09T18:13:10.028Z,98.74
2019-03-09T18:15:38.445Z,99.13
2019-03-09T18:18:07.666Z,99.17
2019-03-09T18:20:36.189Z,97.99
2019-03-09T18:23:04.616Z,97.73
2019-03-09T18:25:33.030Z,98.05
2019-03-09T18:28:01.433Z,99.55
2019-03-09T18:30:30.927Z,99.07
2019-03-09T18:32:59.350Z,98.27
2019-03-09T18:35:27.879Z,99.02
2019-03-09T18:37:56.318Z,100.00
2019-03-09T18:40:24.795Z,100.00
2019-03-09T18:42:53.483Z,100.00
2019-03-09T18:45:23.155Z,100.00
2019-03-09T18:47:51.573Z,100.00
2019-03-09T18:50:20.148Z,100.00
2019-03-09T18:52:48.562Z,100.00
2019-03-09T18:55:17.065Z,100.00
2019-03-09T18:57:45.495Z,100.00
2019-03-09T19:00:21.251Z,100.00
2019-03-09T19:02:49.967Z,99.20
2019-03-09T19:05:18.591Z,95.58
2019-03-09T19:07:47.062Z,92.48
2019-03-09T19:10:17.415Z,94.82
2019-03-09T19:12:45.850Z,94.67
2019-03-09T19:15:16.317Z,94.14
2019-03-09T19:17:44.826Z,94.26
2019-03-09T19:20:17.865Z,91.75
2019-03-09T19:22:46.587Z,90.74
2019-03-09T19:25:15.951Z,90.56
2019-03-09T19:27:44.551Z,91.55
2019-03-09T19:30:18.377Z,91.42
2019-03-09T19:32:46.863Z,91.26
2019-03-09T19:35:15.350Z,90.81
2019-03-09T19:37:43.783Z,92.18
2019-03-09T19:40:17.648Z,92.50
2019-03-09T19:42:46.728Z,91.94
2019-03-09T19:45:22.505Z,92.57
2019-03-09T19:47:51.039Z,92.60
2019-03-09T19:50:22.564Z,92.10
2019-03-09T19:52:50.950Z,89.51
2019-03-09T19:55:19.364Z,90.02
2019-03-09T19:57:47.808Z,91.47
2019-03-09T20:00:18.598Z,91.26
2019-03-09T20:02:47.001Z,89.99
2019-03-09T20:05:15.681Z,90.02
2019-03-09T20:07:44.229Z,90.84
2019-03-09T20:10:23.093Z,91.15
2019-03-09T20:12:51.755Z,91.92
2019-03-09T20:15:21.959Z,91.23
2019-03-09T20:17:50.390Z,90.21
2019-03-09T20:20:21.183Z,90.20
2019-03-09T20:22:49.690Z,90.43
2019-03-09T20:25:18.186Z,90.27
2019-03-09T20:27:46.886Z,90.65
2019-03-09T20:30:19.687Z,91.20
2019-03-09T20:32:48.178Z,92.06
2019-03-09T20:35:16.742Z,90.61
2019-03-09T20:37:45.171Z,90.92
2019-03-09T20:40:18.774Z,91.18
2019-03-09T20:42:47.443Z,90.48
2019-03-09T20:45:21.683Z,90.74
2019-03-09T20:47:50.105Z,90.46
2019-03-09T20:50:20.907Z,90.99
2019-03-09T20:52:51.210Z,91.02
2019-03-09T20:55:19.602Z,91.65
2019-03-09T20:57:48.040Z,91.06
2019-03-09T21:00:18.332Z,91.16
2019-03-09T21:02:46.789Z,91.16
2019-03-09T21:05:15.286Z,91.70
2019-03-09T21:07:43.710Z,90.90
2019-03-09T21:10:16.718Z,90.64
2019-03-09T21:13:05.105Z,91.08
2019-03-09T21:15:33.587Z,91.89
2019-03-09T21:18:02.096Z,91.40
2019-03-09T21:20:30.502Z,91.29
2019-03-09T21:22:58.987Z,91.11
2019-03-09T21:25:27.469Z,90.09
2019-03-09T21:27:55.972Z,91.54
2019-03-09T21:30:24.499Z,90.55
2019-03-09T21:32:52.908Z,89.91
2019-03-09T21:35:21.441Z,89.50
2019-03-09T21:37:49.863Z,89.56
2019-03-09T21:40:19.036Z,89.77
2019-03-09T21:42:47.467Z,89.88
2019-03-09T21:45:16.011Z,89.78
2019-03-09T21:47:44.447Z,90.25
2019-03-09T21:50:15.906Z,90.74
2019-03-09T21:52:44.394Z,90.38
2019-03-09T21:55:14.029Z,90.93
2019-03-09T21:57:42.468Z,91.09
2019-03-09T22:00:18.511Z,91.29
2019-03-09T22:02:46.930Z,90.56
2019-03-09T22:05:15.352Z,91.49
2019-03-09T22:07:43.743Z,91.21
2019-03-09T22:10:13.210Z,92.13
2019-03-09T22:12:41.791Z,91.49
2019-03-09T22:15:15.781Z,92.15
2019-03-09T22:17:45.148Z,92.13
2019-03-09T22:20:15.038Z,92.42
2019-03-09T22:22:43.512Z,92.44
2019-03-09T22:25:16.762Z,92.52
2019-03-09T22:27:45.184Z,92.90
2019-03-09T22:30:23.181Z,93.43
2019-03-09T22:32:51.712Z,93.13
2019-03-09T22:35:20.139Z,93.13
2019-03-09T22:37:48.594Z,94.22
2019-03-09T22:40:19.230Z,92.73
2019-03-09T22:42:47.645Z,93.27
2019-03-09T22:45:16.457Z,92.38
2019-03-09T22:47:45.167Z,91.87
2019-03-09T22:50:16.659Z,91.16
2019-03-09T22:52:45.098Z,91.04
2019-03-09T22:55:14.735Z,90.14
2019-03-09T22:57:43.229Z,90.30
2019-03-09T23:00:14.933Z,90.51
2019-03-09T23:02:44.876Z,89.24
2019-03-09T23:05:13.853Z,89.41
2019-03-09T23:07:42.259Z,90.32
2019-03-09T23:10:25.680Z,90.07
2019-03-09T23:12:54.095Z,90.28
2019-03-09T23:15:22.493Z,90.61
2019-03-09T23:17:50.999Z,90.91
2019-03-09T23:20:19.577Z,90.18
2019-03-09T23:22:47.991Z,90.93
2019-03-09T23:25:16.848Z,91.51
2019-03-09T23:27:45.330Z,91.15
2019-03-09T23:30:18.214Z,91.08
2019-03-09T23:32:48.406Z,91.03
2019-03-09T23:35:17.055Z,91.30
2019-03-09T23:37:49.083Z,90.71
2019-03-09T23:40:19.783Z,91.91
2019-03-09T23:42:48.284Z,91.85
2019-03-09T23:45:21.961Z,91.84
2019-03-09T23:47:50.519Z,92.30
2019-03-09T23:50:19.262Z,92.44
2019-03-09T23:52:47.674Z,92.94
2019-03-09T23:55:22.036Z,93.47
2019-03-09T23:57:50.059Z,93.32
